Roth, North Dakota
Current Conditions -  °F | °C
As of 9:58 PM on Friday 28 Nov 2014 (Local Time) from KMIB Reporting Station
Scattered Clouds Scattered Clouds  
Wind Chill:   Ceiling: Unl
Heat Index: 10°   Visibility: 10mi
Dew Point:   Wind: 6mph
Humidity: 90%   Direction: 90°E
Pressure: 29.45"   Gusts: NA
Location:  48.9505°N, 100.734°W
Report Text: KMIB 290358Z AUTO 09005KT 10SM SCT095 M12/M14 A2945 RMK AO2 VIS 3/4 RWY29 SLP013 T11231136
Loading
Personal Weather Stations






























Interactive Weather Map New forecast layout! Learn more

10-Day Weather Forecast

Advertisements
Track Severe Weather on mobile